sensor_id;sensor_type;location;lat;lon;timestamp;pressure;altitude;pressure_sealevel;temperature;humidity
5413;BME280;2729;50.056;8.678;2022-12-29T00:02:08;99543.72;;;13.49;100.00
5413;BME280;2729;50.056;8.678;2022-12-29T00:04:34;99543.09;;;12.69;100.00
5413;BME280;2729;50.056;8.678;2022-12-29T00:07:00;99534.31;;;12.88;100.00
5413;BME280;2729;50.056;8.678;2022-12-29T00:09:27;99532.44;;;13.30;100.00
5413;BME280;2729;50.056;8.678;2022-12-29T00:11:52;99525.41;;;14.01;100.00
5413;BME280;2729;50.056;8.678;2022-12-29T00:14:19;99529.09;;;13.07;100.00
5413;BME280;2729;50.056;8.678;2022-12-29T00:17:03;99528.19;;;13.63;100.00
5413;BME280;2729;50.056;8.678;2022-12-29T00:19:29;99534.50;;;13.04;100.00
5413;BME280;2729;50.056;8.678;2022-12-29T00:22:14;99531.69;;;12.70;100.00
5413;BME280;2729;50.056;8.678;2022-12-29T00:24:59;99543.94;;;12.88;100.00
5413;BME280;2729;50.056;8.678;2022-12-29T00:27:43;99528.66;;;12.79;100.00
5413;BME280;2729;50.056;8.678;2022-12-29T00:30:28;99540.25;;;12.54;100.00
5413;BME280;2729;50.056;8.678;2022-12-29T00:33:18;99542.03;;;12.92;100.00
5413;BME280;2729;50.056;8.678;2022-12-29T00:36:10;99535.34;;;13.24;100.00
5413;BME280;2729;50.056;8.678;2022-12-29T00:38:39;99540.00;;;13.36;100.00
5413;BME280;2729;50.056;8.678;2022-12-29T00:41:25;99536.66;;;12.76;100.00
5413;BME280;2729;50.056;8.678;2022-12-29T00:44:11;99524.41;;;13.86;100.00
5413;BME280;2729;50.056;8.678;2022-12-29T00:46:39;99530.47;;;13.52;100.00
5413;BME280;2729;50.056;8.678;2022-12-29T00:49:07;99530.88;;;13.62;100.00
5413;BME280;2729;50.056;8.678;2022-12-29T00:51:53;99548.69;;;13.19;100.00
5413;BME280;2729;50.056;8.678;2022-12-29T00:54:19;99544.81;;;13.45;100.00
5413;BME280;2729;50.056;8.678;2022-12-29T00:56:47;99538.78;;;13.43;100.00
5413;BME280;2729;50.056;8.678;2022-12-29T00:59:13;99544.53;;;13.13;100.00
5413;BME280;2729;50.056;8.678;2022-12-29T01:01:39;99540.50;;;13.44;100.00
5413;BME280;2729;50.056;8.678;2022-12-29T01:04:06;99527.81;;;13.35;100.00
5413;BME280;2729;50.056;8.678;2022-12-29T01:06:33;99537.47;;;13.15;100.00
5413;BME280;2729;50.056;8.678;2022-12-29T01:08:59;99530.41;;;13.17;100.00
5413;BME280;2729;50.056;8.678;2022-12-29T01:11:43;99530.72;;;12.72;100.00
5413;BME280;2729;50.056;8.678;2022-12-29T01:14:09;99531.34;;;12.96;100.00
5413;BME280;2729;50.056;8.678;2022-12-29T01:16:36;99529.19;;;13.61;100.00
5413;BME280;2729;50.056;8.678;2022-12-29T01:19:03;99516.28;;;13.56;100.00
5413;BME280;2729;50.056;8.678;2022-12-29T01:21:29;99528.78;;;13.68;100.00
5413;BME280;2729;50.056;8.678;2022-12-29T01:23:55;99524.50;;;13.31;100.00
5413;BME280;2729;50.056;8.678;2022-12-29T01:26:21;99516.09;;;13.06;100.00
5413;BME280;2729;50.056;8.678;2022-12-29T01:28:47;99517.69;;;13.98;100.00
5413;BME280;2729;50.056;8.678;2022-12-29T01:31:14;99517.94;;;13.76;100.00
5413;BME280;2729;50.056;8.678;2022-12-29T01:33:41;99505.47;;;13.28;100.00
5413;BME280;2729;50.056;8.678;2022-12-29T01:36:10;99500.41;;;13.94;100.00
5413;BME280;2729;50.056;8.678;2022-12-29T01:38:37;99502.00;;;13.27;100.00
5413;BME280;2729;50.056;8.678;2022-12-29T01:41:05;99492.56;;;13.23;100.00
5413;BME280;2729;50.056;8.678;2022-12-29T01:43:55;99496.75;;;13.08;100.00
5413;BME280;2729;50.056;8.678;2022-12-29T01:48:57;99494.06;;;13.10;100.00
5413;BME280;2729;50.056;8.678;2022-12-29T01:51:26;99500.22;;;12.90;100.00
5413;BME280;2729;50.056;8.678;2022-12-29T01:53:55;99491.81;;;13.02;100.00
5413;BME280;2729;50.056;8.678;2022-12-29T01:56:22;99489.00;;;13.43;100.00
5413;BME280;2729;50.056;8.678;2022-12-29T01:58:54;99494.72;;;13.68;100.00
5413;BME280;2729;50.056;8.678;2022-12-29T02:01:21;99499.50;;;13.24;100.00
5413;BME280;2729;50.056;8.678;2022-12-29T02:03:48;99493.97;;;12.93;100.00
5413;BME280;2729;50.056;8.678;2022-12-29T02:06:20;99487.59;;;13.36;100.00
5413;BME280;2729;50.056;8.678;2022-12-29T02:08:47;99486.66;;;13.37;100.00
5413;BME280;2729;50.056;8.678;2022-12-29T02:11:15;99494.13;;;13.08;100.00
5413;BME280;2729;50.056;8.678;2022-12-29T02:13:42;99478.13;;;13.68;100.00
5413;BME280;2729;50.056;8.678;2022-12-29T02:16:33;99494.69;;;13.34;100.00
5413;BME280;2729;50.056;8.678;2022-12-29T02:22:31;99494.44;;;13.21;100.00
5413;BME280;2729;50.056;8.678;2022-12-29T02:25:20;99489.16;;;13.92;100.00
5413;BME280;2729;50.056;8.678;2022-12-29T02:28:33;99482.19;;;13.39;100.00
5413;BME280;2729;50.056;8.678;2022-12-29T02:31:17;99488.06;;;13.78;100.00
5413;BME280;2729;50.056;8.678;2022-12-29T02:37:26;99485.34;;;13.09;100.00
5413;BME280;2729;50.056;8.678;2022-12-29T02:40:17;99481.50;;;13.52;100.00
5413;BME280;2729;50.056;8.678;2022-12-29T02:45:47;99450.19;;;13.32;100.00
5413;BME280;2729;50.056;8.678;2022-12-29T02:48:22;99466.06;;;13.29;100.00
5413;BME280;2729;50.056;8.678;2022-12-29T02:51:02;99466.91;;;13.30;100.00
5413;BME280;2729;50.056;8.678;2022-12-29T02:53:32;99475.97;;;13.76;100.00
5413;BME280;2729;50.056;8.678;2022-12-29T02:56:18;99477.28;;;13.14;100.00
5413;BME280;2729;50.056;8.678;2022-12-29T02:58:45;99468.16;;;13.23;100.00
5413;BME280;2729;50.056;8.678;2022-12-29T03:01:24;99469.47;;;12.94;100.00
5413;BME280;2729;50.056;8.678;2022-12-29T03:04:19;99469.72;;;13.44;100.00
5413;BME280;2729;50.056;8.678;2022-12-29T03:10:03;99458.06;;;13.84;100.00
5413;BME280;2729;50.056;8.678;2022-12-29T03:12:48;99459.22;;;13.27;100.00
5413;BME280;2729;50.056;8.678;2022-12-29T03:15:41;99458.84;;;13.86;100.00
5413;BME280;2729;50.056;8.678;2022-12-29T03:18:47;99446.63;;;14.02;100.00
5413;BME280;2729;50.056;8.678;2022-12-29T03:21:24;99453.38;;;13.56;100.00
5413;BME280;2729;50.056;8.678;2022-12-29T03:24:17;99452.84;;;13.49;100.00
5413;BME280;2729;50.056;8.678;2022-12-29T03:26:45;99448.75;;;13.61;100.00
5413;BME280;2729;50.056;8.678;2022-12-29T03:29:12;99445.41;;;13.75;100.00
5413;BME280;2729;50.056;8.678;2022-12-29T03:31:40;99437.88;;;13.69;100.00
5413;BME280;2729;50.056;8.678;2022-12-29T03:34:09;99446.53;;;14.37;100.00
5413;BME280;2729;50.056;8.678;2022-12-29T03:36:49;99433.47;;;13.52;100.00
5413;BME280;2729;50.056;8.678;2022-12-29T03:39:18;99438.66;;;13.54;100.00
5413;BME280;2729;50.056;8.678;2022-12-29T03:41:49;99441.66;;;13.10;100.00
5413;BME280;2729;50.056;8.678;2022-12-29T03:44:16;99426.22;;;13.40;100.00
5413;BME280;2729;50.056;8.678;2022-12-29T03:46:42;99432.31;;;13.75;100.00
5413;BME280;2729;50.056;8.678;2022-12-29T03:49:08;99428.06;;;13.72;100.00
5413;BME280;2729;50.056;8.678;2022-12-29T03:51:34;99428.59;;;13.79;100.00
5413;BME280;2729;50.056;8.678;2022-12-29T03:54:00;99424.38;;;13.59;100.00
5413;BME280;2729;50.056;8.678;2022-12-29T03:56:26;99427.41;;;14.02;100.00
5413;BME280;2729;50.056;8.678;2022-12-29T03:58:52;99427.28;;;13.18;100.00
5413;BME280;2729;50.056;8.678;2022-12-29T04:01:24;99420.50;;;13.83;100.00
5413;BME280;2729;50.056;8.678;2022-12-29T04:03:50;99412.66;;;13.49;100.00
5413;BME280;2729;50.056;8.678;2022-12-29T04:06:16;99411.94;;;13.80;100.00
5413;BME280;2729;50.056;8.678;2022-12-29T04:08:57;99401.41;;;13.47;100.00
5413;BME280;2729;50.056;8.678;2022-12-29T04:11:23;99401.72;;;13.91;100.00
5413;BME280;2729;50.056;8.678;2022-12-29T04:13:49;99396.69;;;14.04;100.00
5413;BME280;2729;50.056;8.678;2022-12-29T04:16:19;99405.00;;;14.12;100.00
5413;BME280;2729;50.056;8.678;2022-12-29T04:18:45;99390.72;;;14.33;100.00
5413;BME280;2729;50.056;8.678;2022-12-29T04:21:12;99388.84;;;13.87;100.00
5413;BME280;2729;50.056;8.678;2022-12-29T04:23:40;99396.19;;;13.80;100.00
5413;BME280;2729;50.056;8.678;2022-12-29T04:26:08;99406.50;;;14.00;100.00
5413;BME280;2729;50.056;8.678;2022-12-29T04:28:40;99402.25;;;13.65;100.00
5413;BME280;2729;50.056;8.678;2022-12-29T04:31:17;99413.19;;;14.06;100.00
5413;BME280;2729;50.056;8.678;2022-12-29T04:33:45;99395.38;;;14.28;100.00
5413;BME280;2729;50.056;8.678;2022-12-29T04:36:11;99396.69;;;14.04;100.00
5413;BME280;2729;50.056;8.678;2022-12-29T04:38:38;99396.53;;;14.07;100.00
5413;BME280;2729;50.056;8.678;2022-12-29T04:41:05;99408.97;;;14.52;100.00
5413;BME280;2729;50.056;8.678;2022-12-29T04:43:31;99382.38;;;14.09;100.00
5413;BME280;2729;50.056;8.678;2022-12-29T04:46:18;99396.78;;;14.18;100.00
5413;BME280;2729;50.056;8.678;2022-12-29T04:48:49;99397.56;;;14.36;100.00
5413;BME280;2729;50.056;8.678;2022-12-29T04:51:46;99394.91;;;14.53;100.00
5413;BME280;2729;50.056;8.678;2022-12-29T04:54:13;99405.53;;;14.34;100.00
5413;BME280;2729;50.056;8.678;2022-12-29T04:56:40;99389.31;;;14.59;100.00
5413;BME280;2729;50.056;8.678;2022-12-29T04:59:07;99405.31;;;14.06;100.00
5413;BME280;2729;50.056;8.678;2022-12-29T05:01:33;99398.00;;;14.28;100.00
5413;BME280;2729;50.056;8.678;2022-12-29T05:03:59;99415.94;;;13.87;100.00
5413;BME280;2729;50.056;8.678;2022-12-29T05:06:25;99395.44;;;14.11;100.00
5413;BME280;2729;50.056;8.678;2022-12-29T05:08:51;99422.22;;;14.33;100.00
5413;BME280;2729;50.056;8.678;2022-12-29T05:11:17;99403.38;;;14.58;100.00
5413;BME280;2729;50.056;8.678;2022-12-29T05:13:45;99406.94;;;14.57;100.00
5413;BME280;2729;50.056;8.678;2022-12-29T05:16:13;99407.63;;;14.12;100.00
5413;BME280;2729;50.056;8.678;2022-12-29T05:18:39;99407.09;;;14.54;100.00
5413;BME280;2729;50.056;8.678;2022-12-29T05:21:07;99422.09;;;14.52;100.00
5413;BME280;2729;50.056;8.678;2022-12-29T05:23:32;99409.69;;;14.38;100.00
5413;BME280;2729;50.056;8.678;2022-12-29T05:26:03;99430.94;;;14.01;100.00
5413;BME280;2729;50.056;8.678;2022-12-29T05:28:47;99411.94;;;13.80;100.00
5413;BME280;2729;50.056;8.678;2022-12-29T05:31:17;99409.75;;;14.21;100.00
5413;BME280;2729;50.056;8.678;2022-12-29T05:33:43;99396.41;;;14.73;100.00
5413;BME280;2729;50.056;8.678;2022-12-29T05:36:10;99401.22;;;14.33;100.00
5413;BME280;2729;50.056;8.678;2022-12-29T05:38:39;99397.78;;;14.00;100.00
5413;BME280;2729;50.056;8.678;2022-12-29T05:41:06;99389.53;;;13.90;100.00
5413;BME280;2729;50.056;8.678;2022-12-29T05:43:50;99369.78;;;14.16;100.00
5413;BME280;2729;50.056;8.678;2022-12-29T05:46:28;99383.50;;;14.37;100.00
5413;BME280;2729;50.056;8.678;2022-12-29T05:49:17;99386.09;;;14.54;100.00
5413;BME280;2729;50.056;8.678;2022-12-29T05:52:00;99379.38;;;14.33;100.00
5413;BME280;2729;50.056;8.678;2022-12-29T05:54:28;99386.38;;;14.16;100.00
5413;BME280;2729;50.056;8.678;2022-12-29T05:56:54;99384.78;;;13.81;100.00
5413;BME280;2729;50.056;8.678;2022-12-29T05:59:21;99367.03;;;14.51;100.00
5413;BME280;2729;50.056;8.678;2022-12-29T06:01:47;99378.03;;;14.73;100.00
5413;BME280;2729;50.056;8.678;2022-12-29T06:04:13;99388.63;;;14.56;100.00
5413;BME280;2729;50.056;8.678;2022-12-29T06:06:40;99376.34;;;14.56;100.00
5413;BME280;2729;50.056;8.678;2022-12-29T06:09:10;99376.09;;;15.06;100.00
5413;BME280;2729;50.056;8.678;2022-12-29T06:11:36;99391.66;;;14.32;100.00
5413;BME280;2729;50.056;8.678;2022-12-29T06:14:03;99393.31;;;14.18;100.00
5413;BME280;2729;50.056;8.678;2022-12-29T06:16:29;99390.91;;;14.46;100.00
5413;BME280;2729;50.056;8.678;2022-12-29T06:18:58;99382.97;;;14.63;100.00
5413;BME280;2729;50.056;8.678;2022-12-29T06:21:24;99394.31;;;15.09;100.00
5413;BME280;2729;50.056;8.678;2022-12-29T06:23:49;99379.47;;;14.78;100.00
5413;BME280;2729;50.056;8.678;2022-12-29T06:26:15;99394.97;;;14.67;100.00
5413;BME280;2729;50.056;8.678;2022-12-29T06:28:42;99377.63;;;14.65;100.00
5413;BME280;2729;50.056;8.678;2022-12-29T06:31:11;99384.19;;;14.40;100.00
5413;BME280;2729;50.056;8.678;2022-12-29T06:33:38;99386.78;;;14.09;100.00
5413;BME280;2729;50.056;8.678;2022-12-29T06:36:04;99380.00;;;15.15;100.00
5413;BME280;2729;50.056;8.678;2022-12-29T06:38:30;99389.72;;;14.83;100.00
5413;BME280;2729;50.056;8.678;2022-12-29T06:40:57;99387.72;;;15.02;100.00
5413;BME280;2729;50.056;8.678;2022-12-29T06:43:26;99385.06;;;14.72;100.00
5413;BME280;2729;50.056;8.678;2022-12-29T06:46:04;99388.47;;;14.74;100.00
5413;BME280;2729;50.056;8.678;2022-12-29T06:48:30;99383.03;;;14.77;100.00
5413;BME280;2729;50.056;8.678;2022-12-29T06:50:56;99391.00;;;14.44;100.00
5413;BME280;2729;50.056;8.678;2022-12-29T06:53:22;99393.75;;;14.26;100.00
5413;BME280;2729;50.056;8.678;2022-12-29T06:55:48;99386.94;;;14.55;100.00
5413;BME280;2729;50.056;8.678;2022-12-29T06:58:13;99380.00;;;14.54;100.00
5413;BME280;2729;50.056;8.678;2022-12-29T07:00:39;99388.06;;;14.18;100.00
5413;BME280;2729;50.056;8.678;2022-12-29T07:03:05;99391.53;;;14.18;100.00
5413;BME280;2729;50.056;8.678;2022-12-29T07:05:31;99386.31;;;14.81;100.00
5413;BME280;2729;50.056;8.678;2022-12-29T07:07:58;99376.78;;;14.48;100.00
5413;BME280;2729;50.056;8.678;2022-12-29T07:10:24;99385.03;;;14.41;100.00
5413;BME280;2729;50.056;8.678;2022-12-29T07:12:50;99375.47;;;14.40;100.00
5413;BME280;2729;50.056;8.678;2022-12-29T07:15:19;99363.97;;;14.58;100.00
5413;BME280;2729;50.056;8.678;2022-12-29T07:17:45;99373.91;;;14.53;100.00
5413;BME280;2729;50.056;8.678;2022-12-29T07:20:11;99360.69;;;14.55;100.00
5413;BME280;2729;50.056;8.678;2022-12-29T07:22:37;99375.91;;;14.32;100.00
5413;BME280;2729;50.056;8.678;2022-12-29T07:25:04;99377.94;;;14.90;100.00
5413;BME280;2729;50.056;8.678;2022-12-29T07:27:30;99366.03;;;14.99;100.00
5413;BME280;2729;50.056;8.678;2022-12-29T07:29:56;99374.78;;;14.99;100.00
5413;BME280;2729;50.056;8.678;2022-12-29T07:32:22;99381.84;;;15.13;100.00
5413;BME280;2729;50.056;8.678;2022-12-29T07:34:48;99379.63;;;14.91;100.00
5413;BME280;2729;50.056;8.678;2022-12-29T07:37:17;99375.41;;;13.93;100.00
5413;BME280;2729;50.056;8.678;2022-12-29T07:39:43;99379.56;;;14.45;100.00
5413;BME280;2729;50.056;8.678;2022-12-29T07:42:09;99381.47;;;14.26;100.00
5413;BME280;2729;50.056;8.678;2022-12-29T07:44:43;99378.81;;;14.43;100.00
5413;BME280;2729;50.056;8.678;2022-12-29T07:47:15;99373.97;;;14.52;100.00
5413;BME280;2729;50.056;8.678;2022-12-29T07:49:41;99375.25;;;14.44;100.00
5413;BME280;2729;50.056;8.678;2022-12-29T07:52:07;99381.66;;;15.46;100.00
5413;BME280;2729;50.056;8.678;2022-12-29T07:54:33;99381.44;;;14.43;100.00
5413;BME280;2729;50.056;8.678;2022-12-29T07:56:59;99399.22;;;14.70;100.00
5413;BME280;2729;50.056;8.678;2022-12-29T07:59:26;99386.06;;;14.86;100.00
5413;BME280;2729;50.056;8.678;2022-12-29T08:01:52;99395.16;;;14.48;100.00
5413;BME280;2729;50.056;8.678;2022-12-29T08:04:18;99395.50;;;15.20;100.00
5413;BME280;2729;50.056;8.678;2022-12-29T08:06:44;99388.19;;;14.79;100.00
5413;BME280;2729;50.056;8.678;2022-12-29T08:09:11;99391.00;;;14.76;100.00
5413;BME280;2729;50.056;8.678;2022-12-29T08:11:37;99394.66;;;15.19;100.00
5413;BME280;2729;50.056;8.678;2022-12-29T08:14:03;99403.13;;;15.24;100.00
5413;BME280;2729;50.056;8.678;2022-12-29T08:16:29;99409.16;;;15.10;100.00
5413;BME280;2729;50.056;8.678;2022-12-29T08:18:56;99417.84;;;14.50;100.00
5413;BME280;2729;50.056;8.678;2022-12-29T08:21:22;99397.75;;;14.33;100.00
5413;BME280;2729;50.056;8.678;2022-12-29T08:23:48;99413.69;;;14.93;100.00
5413;BME280;2729;50.056;8.678;2022-12-29T08:26:14;99417.59;;;15.31;100.00
5413;BME280;2729;50.056;8.678;2022-12-29T08:28:40;99412.44;;;14.68;100.00
5413;BME280;2729;50.056;8.678;2022-12-29T08:31:06;99430.22;;;14.95;100.00
5413;BME280;2729;50.056;8.678;2022-12-29T08:33:32;99424.56;;;14.71;100.00
5413;BME280;2729;50.056;8.678;2022-12-29T08:35:59;99432.41;;;15.02;100.00
5413;BME280;2729;50.056;8.678;2022-12-29T08:38:27;99442.00;;;14.72;100.00
5413;BME280;2729;50.056;8.678;2022-12-29T08:40:53;99422.00;;;14.85;100.00
5413;BME280;2729;50.056;8.678;2022-12-29T08:43:19;99443.47;;;14.29;100.00
5413;BME280;2729;50.056;8.678;2022-12-29T08:45:45;99423.63;;;14.72;100.00
5413;BME280;2729;50.056;8.678;2022-12-29T08:48:11;99443.03;;;14.69;100.00
5413;BME280;2729;50.056;8.678;2022-12-29T08:50:37;99434.88;;;14.58;100.00
5413;BME280;2729;50.056;8.678;2022-12-29T08:53:03;99437.59;;;15.34;100.00
5413;BME280;2729;50.056;8.678;2022-12-29T08:55:29;99423.19;;;14.95;100.00
5413;BME280;2729;50.056;8.678;2022-12-29T08:57:55;99444.44;;;14.43;100.00
5413;BME280;2729;50.056;8.678;2022-12-29T09:00:22;99440.75;;;14.30;100.00
5413;BME280;2729;50.056;8.678;2022-12-29T09:02:49;99452.72;;;14.03;100.00
5413;BME280;2729;50.056;8.678;2022-12-29T09:05:15;99445.00;;;14.00;100.00
5413;BME280;2729;50.056;8.678;2022-12-29T09:07:41;99445.25;;;13.78;100.00
5413;BME280;2729;50.056;8.678;2022-12-29T09:10:07;99469.19;;;13.72;100.00
5413;BME280;2729;50.056;8.678;2022-12-29T09:12:33;99449.59;;;13.62;100.00
5413;BME280;2729;50.056;8.678;2022-12-29T09:14:59;99469.34;;;13.69;100.00
5413;BME280;2729;50.056;8.678;2022-12-29T09:17:25;99475.66;;;13.65;100.00
5413;BME280;2729;50.056;8.678;2022-12-29T09:20:16;99490.00;;;13.75;100.00
5413;BME280;2729;50.056;8.678;2022-12-29T09:22:43;99494.00;;;13.47;100.00
5413;BME280;2729;50.056;8.678;2022-12-29T09:25:10;99499.03;;;13.52;100.00
5413;BME280;2729;50.056;8.678;2022-12-29T09:27:36;99500.16;;;13.29;100.00
5413;BME280;2729;50.056;8.678;2022-12-29T09:30:04;99508.06;;;12.71;100.00
5413;BME280;2729;50.056;8.678;2022-12-29T09:32:32;99514.44;;;12.84;100.00
5413;BME280;2729;50.056;8.678;2022-12-29T09:34:58;99522.56;;;12.97;100.00
5413;BME280;2729;50.056;8.678;2022-12-29T09:37:24;99529.59;;;12.78;100.00
5413;BME280;2729;50.056;8.678;2022-12-29T09:39:50;99522.22;;;12.67;100.00
5413;BME280;2729;50.056;8.678;2022-12-29T09:42:25;99528.94;;;12.73;100.00
5413;BME280;2729;50.056;8.678;2022-12-29T09:45:11;99533.97;;;12.59;100.00
5413;BME280;2729;50.056;8.678;2022-12-29T09:47:41;99532.94;;;12.42;100.00
5413;BME280;2729;50.056;8.678;2022-12-29T09:50:22;99544.28;;;12.22;100.00
5413;BME280;2729;50.056;8.678;2022-12-29T09:55:49;99547.16;;;12.37;100.00
5413;BME280;2729;50.056;8.678;2022-12-29T09:58:30;99539.69;;;12.28;100.00
5413;BME280;2729;50.056;8.678;2022-12-29T10:01:04;99542.38;;;12.26;100.00
5413;BME280;2729;50.056;8.678;2022-12-29T10:03:45;99552.25;;;12.19;100.00
5413;BME280;2729;50.056;8.678;2022-12-29T10:06:32;99552.47;;;11.95;100.00
5413;BME280;2729;50.056;8.678;2022-12-29T10:09:25;99566.41;;;11.73;100.00
5413;BME280;2729;50.056;8.678;2022-12-29T10:15:13;99548.97;;;12.35;100.00
5413;BME280;2729;50.056;8.678;2022-12-29T10:20:49;99553.03;;;12.21;100.00
5413;BME280;2729;50.056;8.678;2022-12-29T10:23:38;99543.28;;;13.03;100.00
5413;BME280;2729;50.056;8.678;2022-12-29T10:26:15;99529.94;;;12.70;100.00
5413;BME280;2729;50.056;8.678;2022-12-29T10:29:02;99534.16;;;12.54;100.00
5413;BME280;2729;50.056;8.678;2022-12-29T10:31:35;99535.78;;;12.56;100.00
5413;BME280;2729;50.056;8.678;2022-12-29T10:34:10;99538.34;;;12.58;100.00
5413;BME280;2729;50.056;8.678;2022-12-29T10:36:43;99541.72;;;12.21;100.00
5413;BME280;2729;50.056;8.678;2022-12-29T10:39:41;99554.94;;;11.98;100.00
5413;BME280;2729;50.056;8.678;2022-12-29T10:42:12;99545.47;;;12.15;100.00
5413;BME280;2729;50.056;8.678;2022-12-29T10:44:39;99552.66;;;12.31;100.00
5413;BME280;2729;50.056;8.678;2022-12-29T10:47:12;99556.97;;;12.32;100.00
5413;BME280;2729;50.056;8.678;2022-12-29T10:49:42;99556.72;;;12.17;100.00
5413;BME280;2729;50.056;8.678;2022-12-29T10:52:09;99556.91;;;12.33;100.00
5413;BME280;2729;50.056;8.678;2022-12-29T10:54:45;99542.25;;;12.29;100.00
5413;BME280;2729;50.056;8.678;2022-12-29T10:57:34;99551.19;;;12.44;100.00
5413;BME280;2729;50.056;8.678;2022-12-29T11:00:10;99546.69;;;12.47;100.00
5413;BME280;2729;50.056;8.678;2022-12-29T11:02:54;99548.94;;;12.16;100.00
5413;BME280;2729;50.056;8.678;2022-12-29T11:05:49;99542.34;;;12.46;100.00
5413;BME280;2729;50.056;8.678;2022-12-29T11:08:20;99548.56;;;12.83;100.00
5413;BME280;2729;50.056;8.678;2022-12-29T11:11:00;99550.94;;;12.69;100.00
5413;BME280;2729;50.056;8.678;2022-12-29T11:13:29;99539.13;;;12.60;100.00
5413;BME280;2729;50.056;8.678;2022-12-29T11:15:55;99546.06;;;12.80;100.00
5413;BME280;2729;50.056;8.678;2022-12-29T11:18:33;99539.06;;;12.80;100.00
5413;BME280;2729;50.056;8.678;2022-12-29T11:21:02;99545.31;;;13.15;100.00
5413;BME280;2729;50.056;8.678;2022-12-29T11:28:43;99571.19;;;12.84;100.00
5413;BME280;2729;50.056;8.678;2022-12-29T11:31:10;99579.41;;;12.95;100.00
5413;BME280;2729;50.056;8.678;2022-12-29T11:33:40;99573.97;;;12.81;100.00
5413;BME280;2729;50.056;8.678;2022-12-29T11:36:20;99560.00;;;13.19;100.00
5413;BME280;2729;50.056;8.678;2022-12-29T11:38:48;99555.31;;;13.62;100.00
5413;BME280;2729;50.056;8.678;2022-12-29T11:41:22;99548.66;;;13.38;100.00
5413;BME280;2729;50.056;8.678;2022-12-29T11:43:49;99552.06;;;13.57;100.00
5413;BME280;2729;50.056;8.678;2022-12-29T11:46:22;99541.59;;;13.74;100.00
5413;BME280;2729;50.056;8.678;2022-12-29T11:48:49;99539.91;;;13.73;100.00
5413;BME280;2729;50.056;8.678;2022-12-29T11:51:27;99536.91;;;13.81;100.00
5413;BME280;2729;50.056;8.678;2022-12-29T11:53:57;99534.50;;;13.59;100.00
5413;BME280;2729;50.056;8.678;2022-12-29T11:56:34;99535.66;;;13.88;100.00
5413;BME280;2729;50.056;8.678;2022-12-29T12:01:57;99525.91;;;13.38;100.00
5413;BME280;2729;50.056;8.678;2022-12-29T12:04:26;99537.91;;;13.78;100.00
5413;BME280;2729;50.056;8.678;2022-12-29T12:07:13;99530.28;;;13.74;100.00
5413;BME280;2729;50.056;8.678;2022-12-29T12:09:45;99537.59;;;13.84;100.00
5413;BME280;2729;50.056;8.678;2022-12-29T12:12:22;99526.31;;;14.17;100.00
5413;BME280;2729;50.056;8.678;2022-12-29T12:14:57;99529.97;;;13.80;100.00
5413;BME280;2729;50.056;8.678;2022-12-29T12:17:53;99537.31;;;13.37;100.00
5413;BME280;2729;50.056;8.678;2022-12-29T12:21:04;99536.97;;;13.79;100.00
5413;BME280;2729;50.056;8.678;2022-12-29T12:26:35;99538.28;;;13.71;100.00
5413;BME280;2729;50.056;8.678;2022-12-29T12:29:10;99530.72;;;14.67;100.00
5413;BME280;2729;50.056;8.678;2022-12-29T12:31:57;99543.94;;;13.98;100.00
5413;BME280;2729;50.056;8.678;2022-12-29T12:34:44;99545.59;;;14.33;100.00
5413;BME280;2729;50.056;8.678;2022-12-29T12:42:49;99527.66;;;13.74;100.00
5413;BME280;2729;50.056;8.678;2022-12-29T12:45:39;99532.75;;;13.94;100.00
5413;BME280;2729;50.056;8.678;2022-12-29T12:48:58;99537.22;;;13.75;100.00
5413;BME280;2729;50.056;8.678;2022-12-29T12:51:10;99528.50;;;14.09;100.00
5413;BME280;2729;50.056;8.678;2022-12-29T12:56:59;99533.19;;;14.20;100.00
5413;BME280;2729;50.056;8.678;2022-12-29T13:02:30;99534.75;;;13.89;100.00
5413;BME280;2729;50.056;8.678;2022-12-29T13:08:06;99538.59;;;13.65;100.00
5413;BME280;2729;50.056;8.678;2022-12-29T13:10:42;99529.56;;;13.70;100.00
5413;BME280;2729;50.056;8.678;2022-12-29T13:18:32;99506.09;;;14.19;100.00
5413;BME280;2729;50.056;8.678;2022-12-29T13:21:02;99519.59;;;14.11;100.00
5413;BME280;2729;50.056;8.678;2022-12-29T13:23:50;99524.00;;;14.11;100.00
5413;BME280;2729;50.056;8.678;2022-12-29T13:26:31;99518.69;;;14.12;100.00
5413;BME280;2729;50.056;8.678;2022-12-29T13:29:07;99524.34;;;13.88;100.00
5413;BME280;2729;50.056;8.678;2022-12-29T13:31:46;99514.38;;;13.77;100.00
5413;BME280;2729;50.056;8.678;2022-12-29T13:34:32;99518.44;;;14.17;100.00
5413;BME280;2729;50.056;8.678;2022-12-29T13:37:13;99532.34;;;14.02;100.00
5413;BME280;2729;50.056;8.678;2022-12-29T13:39:44;99524.31;;;14.05;100.00
5413;BME280;2729;50.056;8.678;2022-12-29T13:42:14;99528.81;;;13.86;100.00
5413;BME280;2729;50.056;8.678;2022-12-29T13:44:58;99533.53;;;14.79;100.00
5413;BME280;2729;50.056;8.678;2022-12-29T13:50:28;99537.28;;;14.42;100.00
5413;BME280;2729;50.056;8.678;2022-12-29T13:58:54;99528.19;;;13.98;100.00
5413;BME280;2729;50.056;8.678;2022-12-29T14:01:30;99542.06;;;14.00;100.00
5413;BME280;2729;50.056;8.678;2022-12-29T14:03:59;99540.22;;;13.67;100.00
5413;BME280;2729;50.056;8.678;2022-12-29T14:06:28;99536.75;;;14.01;100.00
5413;BME280;2729;50.056;8.678;2022-12-29T14:08:58;99535.13;;;13.99;100.00
5413;BME280;2729;50.056;8.678;2022-12-29T14:11:34;99540.75;;;13.74;100.00
5413;BME280;2729;50.056;8.678;2022-12-29T14:14:19;99540.59;;;13.94;100.00
5413;BME280;2729;50.056;8.678;2022-12-29T14:16:46;99541.16;;;13.83;100.00
5413;BME280;2729;50.056;8.678;2022-12-29T14:19:18;99545.13;;;13.56;100.00
5413;BME280;2729;50.056;8.678;2022-12-29T14:21:55;99551.94;;;13.95;100.00
5413;BME280;2729;50.056;8.678;2022-12-29T14:27:01;99562.66;;;13.73;100.00
5413;BME280;2729;50.056;8.678;2022-12-29T14:31:56;99570.22;;;13.62;100.00
5413;BME280;2729;50.056;8.678;2022-12-29T14:39:40;99587.31;;;13.51;100.00
5413;BME280;2729;50.056;8.678;2022-12-29T14:44:48;99583.91;;;13.49;100.00
5413;BME280;2729;50.056;8.678;2022-12-29T14:47:19;99576.91;;;13.50;100.00
5413;BME280;2729;50.056;8.678;2022-12-29T14:49:46;99588.75;;;13.40;100.00
5413;BME280;2729;50.056;8.678;2022-12-29T14:52:19;99598.94;;;13.46;100.00
5413;BME280;2729;50.056;8.678;2022-12-29T14:57:44;99596.31;;;13.82;100.00